sensor_id;sensor_type;location;lat;lon;timestamp;P1;durP1;ratioP1;P2;durP2;ratioP2
422;SDS011;198;48.752;9.180;2022-09-01T00:01:37;29.53;;;16.73;;
422;SDS011;198;48.752;9.180;2022-09-01T00:04:06;30.17;;;16.33;;
422;SDS011;198;48.752;9.180;2022-09-01T00:06:34;28.23;;;16.40;;
422;SDS011;198;48.752;9.180;2022-09-01T00:09:03;31.80;;;16.87;;
422;SDS011;198;48.752;9.180;2022-09-01T00:11:31;30.53;;;18.13;;
422;SDS011;198;48.752;9.180;2022-09-01T00:13:57;32.13;;;18.07;;
422;SDS011;198;48.752;9.180;2022-09-01T00:16:26;34.53;;;16.77;;
422;SDS011;198;48.752;9.180;2022-09-01T00:18:52;31.50;;;16.00;;
422;SDS011;198;48.752;9.180;2022-09-01T00:21:23;35.57;;;17.37;;
422;SDS011;198;48.752;9.180;2022-09-01T00:23:51;33.07;;;17.80;;
422;SDS011;198;48.752;9.180;2022-09-01T00:26:17;32.73;;;17.30;;
422;SDS011;198;48.752;9.180;2022-09-01T00:28:43;32.50;;;17.50;;
422;SDS011;198;48.752;9.180;2022-09-01T00:31:08;33.03;;;18.20;;
422;SDS011;198;48.752;9.180;2022-09-01T00:33:39;32.90;;;16.53;;
422;SDS011;198;48.752;9.180;2022-09-01T00:36:04;31.87;;;16.30;;
422;SDS011;198;48.752;9.180;2022-09-01T00:38:31;32.23;;;15.50;;
422;SDS011;198;48.752;9.180;2022-09-01T00:40:58;26.00;;;15.93;;
422;SDS011;198;48.752;9.180;2022-09-01T00:46:13;26.17;;;14.80;;
422;SDS011;198;48.752;9.180;2022-09-01T00:48:43;35.13;;;17.27;;
422;SDS011;198;48.752;9.180;2022-09-01T00:51:09;30.90;;;16.60;;
422;SDS011;198;48.752;9.180;2022-09-01T00:53:36;34.20;;;14.77;;
422;SDS011;198;48.752;9.180;2022-09-01T00:56:05;25.80;;;13.87;;
422;SDS011;198;48.752;9.180;2022-09-01T00:58:33;47.73;;;16.67;;
422;SDS011;198;48.752;9.180;2022-09-01T01:01:00;22.37;;;13.03;;
422;SDS011;198;48.752;9.180;2022-09-01T01:03:26;34.03;;;14.80;;
422;SDS011;198;48.752;9.180;2022-09-01T01:05:56;25.53;;;14.37;;
422;SDS011;198;48.752;9.180;2022-09-01T01:08:29;28.30;;;16.80;;
422;SDS011;198;48.752;9.180;2022-09-01T01:11:04;30.00;;;15.03;;
422;SDS011;198;48.752;9.180;2022-09-01T01:13:34;28.63;;;15.70;;
422;SDS011;198;48.752;9.180;2022-09-01T01:16:35;32.03;;;14.40;;
422;SDS011;198;48.752;9.180;2022-09-01T01:19:05;28.07;;;13.87;;
422;SDS011;198;48.752;9.180;2022-09-01T01:21:53;23.23;;;14.13;;
422;SDS011;198;48.752;9.180;2022-09-01T01:24:38;31.27;;;14.87;;
422;SDS011;198;48.752;9.180;2022-09-01T01:27:03;24.57;;;14.90;;
422;SDS011;198;48.752;9.180;2022-09-01T01:29:33;33.13;;;16.60;;
422;SDS011;198;48.752;9.180;2022-09-01T01:32:02;27.80;;;14.37;;
422;SDS011;198;48.752;9.180;2022-09-01T01:34:36;33.97;;;14.67;;
422;SDS011;198;48.752;9.180;2022-09-01T01:37:07;33.27;;;16.50;;
422;SDS011;198;48.752;9.180;2022-09-01T01:39:34;22.67;;;13.93;;
422;SDS011;198;48.752;9.180;2022-09-01T01:42:04;25.67;;;14.60;;
422;SDS011;198;48.752;9.180;2022-09-01T01:44:33;28.10;;;14.80;;
422;SDS011;198;48.752;9.180;2022-09-01T01:47:01;30.80;;;14.87;;
422;SDS011;198;48.752;9.180;2022-09-01T01:49:34;32.63;;;15.23;;
422;SDS011;198;48.752;9.180;2022-09-01T01:52:00;32.17;;;17.30;;
422;SDS011;198;48.752;9.180;2022-09-01T01:54:28;45.23;;;15.83;;
422;SDS011;198;48.752;9.180;2022-09-01T01:56:59;29.40;;;16.00;;
422;SDS011;198;48.752;9.180;2022-09-01T01:59:28;30.47;;;17.90;;
422;SDS011;198;48.752;9.180;2022-09-01T02:01:54;30.40;;;16.60;;
422;SDS011;198;48.752;9.180;2022-09-01T02:04:20;36.43;;;18.67;;
422;SDS011;198;48.752;9.180;2022-09-01T02:06:47;35.83;;;18.27;;
422;SDS011;198;48.752;9.180;2022-09-01T02:09:14;36.53;;;18.63;;
422;SDS011;198;48.752;9.180;2022-09-01T02:11:41;33.50;;;17.20;;
422;SDS011;198;48.752;9.180;2022-09-01T02:14:08;38.53;;;19.43;;
422;SDS011;198;48.752;9.180;2022-09-01T02:16:34;32.57;;;16.97;;
422;SDS011;198;48.752;9.180;2022-09-01T02:19:00;38.10;;;18.03;;
422;SDS011;198;48.752;9.180;2022-09-01T02:21:31;39.70;;;20.83;;
422;SDS011;198;48.752;9.180;2022-09-01T02:24:01;36.47;;;18.10;;
422;SDS011;198;48.752;9.180;2022-09-01T02:26:33;34.50;;;17.63;;
422;SDS011;198;48.752;9.180;2022-09-01T02:29:03;29.17;;;17.00;;
422;SDS011;198;48.752;9.180;2022-09-01T02:31:33;30.53;;;16.60;;
422;SDS011;198;48.752;9.180;2022-09-01T02:34:03;34.90;;;18.97;;
422;SDS011;198;48.752;9.180;2022-09-01T02:36:29;40.33;;;19.50;;
422;SDS011;198;48.752;9.180;2022-09-01T02:38:59;43.10;;;17.60;;
422;SDS011;198;48.752;9.180;2022-09-01T02:41:24;35.70;;;17.73;;
422;SDS011;198;48.752;9.180;2022-09-01T02:43:53;36.83;;;18.70;;
422;SDS011;198;48.752;9.180;2022-09-01T02:46:18;35.47;;;18.97;;
422;SDS011;198;48.752;9.180;2022-09-01T02:48:47;38.47;;;20.20;;
422;SDS011;198;48.752;9.180;2022-09-01T02:51:16;38.70;;;19.07;;
422;SDS011;198;48.752;9.180;2022-09-01T02:53:43;42.87;;;21.23;;
422;SDS011;198;48.752;9.180;2022-09-01T02:56:17;41.50;;;21.30;;
422;SDS011;198;48.752;9.180;2022-09-01T02:58:46;36.77;;;17.80;;
422;SDS011;198;48.752;9.180;2022-09-01T03:01:14;38.90;;;19.30;;
422;SDS011;198;48.752;9.180;2022-09-01T03:03:44;45.43;;;20.53;;
422;SDS011;198;48.752;9.180;2022-09-01T03:06:10;35.00;;;19.23;;
422;SDS011;198;48.752;9.180;2022-09-01T03:08:36;37.40;;;19.50;;
422;SDS011;198;48.752;9.180;2022-09-01T03:11:03;47.07;;;19.93;;
422;SDS011;198;48.752;9.180;2022-09-01T03:13:34;38.47;;;19.63;;
422;SDS011;198;48.752;9.180;2022-09-01T03:16:01;43.20;;;19.30;;
422;SDS011;198;48.752;9.180;2022-09-01T03:18:27;40.47;;;19.50;;
422;SDS011;198;48.752;9.180;2022-09-01T03:20:52;37.37;;;18.57;;
422;SDS011;198;48.752;9.180;2022-09-01T03:23:18;39.03;;;19.33;;
422;SDS011;198;48.752;9.180;2022-09-01T03:25:44;35.77;;;19.80;;
422;SDS011;198;48.752;9.180;2022-09-01T03:28:11;32.90;;;16.63;;
422;SDS011;198;48.752;9.180;2022-09-01T03:30:38;34.67;;;17.57;;
422;SDS011;198;48.752;9.180;2022-09-01T03:33:10;37.60;;;18.97;;
422;SDS011;198;48.752;9.180;2022-09-01T03:35:35;39.60;;;18.30;;
422;SDS011;198;48.752;9.180;2022-09-01T03:38:02;38.80;;;18.73;;
422;SDS011;198;48.752;9.180;2022-09-01T03:40:29;31.93;;;17.00;;
422;SDS011;198;48.752;9.180;2022-09-01T03:43:00;32.00;;;16.83;;
422;SDS011;198;48.752;9.180;2022-09-01T03:45:29;35.03;;;18.13;;
422;SDS011;198;48.752;9.180;2022-09-01T03:47:59;30.07;;;17.13;;
422;SDS011;198;48.752;9.180;2022-09-01T03:50:30;31.70;;;16.87;;
422;SDS011;198;48.752;9.180;2022-09-01T03:52:56;34.07;;;18.80;;
422;SDS011;198;48.752;9.180;2022-09-01T03:55:26;35.90;;;19.17;;
422;SDS011;198;48.752;9.180;2022-09-01T03:57:56;31.37;;;17.83;;
422;SDS011;198;48.752;9.180;2022-09-01T04:00:25;42.60;;;19.57;;
422;SDS011;198;48.752;9.180;2022-09-01T04:02:54;40.97;;;19.63;;
422;SDS011;198;48.752;9.180;2022-09-01T04:05:22;40.97;;;20.13;;
422;SDS011;198;48.752;9.180;2022-09-01T04:07:53;48.90;;;20.00;;
422;SDS011;198;48.752;9.180;2022-09-01T04:10:20;40.63;;;20.37;;
422;SDS011;198;48.752;9.180;2022-09-01T04:12:46;37.50;;;20.13;;
422;SDS011;198;48.752;9.180;2022-09-01T04:15:13;35.50;;;19.17;;
422;SDS011;198;48.752;9.180;2022-09-01T04:17:40;39.33;;;19.70;;
422;SDS011;198;48.752;9.180;2022-09-01T04:20:25;40.17;;;18.30;;
422;SDS011;198;48.752;9.180;2022-09-01T04:22:51;39.20;;;19.33;;
422;SDS011;198;48.752;9.180;2022-09-01T04:25:17;39.90;;;19.17;;
422;SDS011;198;48.752;9.180;2022-09-01T04:27:51;32.07;;;17.57;;
422;SDS011;198;48.752;9.180;2022-09-01T04:30:21;37.53;;;18.67;;
422;SDS011;198;48.752;9.180;2022-09-01T04:32:55;35.13;;;18.60;;
422;SDS011;198;48.752;9.180;2022-09-01T04:35:21;44.13;;;19.17;;
422;SDS011;198;48.752;9.180;2022-09-01T04:37:51;43.10;;;19.73;;
422;SDS011;198;48.752;9.180;2022-09-01T04:40:17;31.33;;;17.20;;
422;SDS011;198;48.752;9.180;2022-09-01T04:42:47;33.00;;;18.03;;
422;SDS011;198;48.752;9.180;2022-09-01T04:45:13;36.10;;;18.00;;
422;SDS011;198;48.752;9.180;2022-09-01T04:47:39;41.17;;;17.90;;
422;SDS011;198;48.752;9.180;2022-09-01T04:50:06;33.63;;;18.03;;
422;SDS011;198;48.752;9.180;2022-09-01T04:52:41;30.83;;;16.90;;
422;SDS011;198;48.752;9.180;2022-09-01T04:55:08;37.73;;;17.90;;
422;SDS011;198;48.752;9.180;2022-09-01T04:57:41;32.90;;;16.60;;
422;SDS011;198;48.752;9.180;2022-09-01T05:00:15;31.23;;;16.50;;
422;SDS011;198;48.752;9.180;2022-09-01T05:05:17;26.83;;;16.03;;
422;SDS011;198;48.752;9.180;2022-09-01T05:07:44;31.77;;;15.37;;
422;SDS011;198;48.752;9.180;2022-09-01T05:10:10;26.57;;;14.40;;
422;SDS011;198;48.752;9.180;2022-09-01T05:12:36;25.13;;;13.53;;
422;SDS011;198;48.752;9.180;2022-09-01T05:15:02;28.50;;;15.00;;
422;SDS011;198;48.752;9.180;2022-09-01T05:17:34;31.33;;;13.80;;
422;SDS011;198;48.752;9.180;2022-09-01T05:20:01;22.70;;;13.30;;
422;SDS011;198;48.752;9.180;2022-09-01T05:22:27;26.17;;;14.37;;
422;SDS011;198;48.752;9.180;2022-09-01T05:24:55;28.53;;;14.10;;
422;SDS011;198;48.752;9.180;2022-09-01T05:27:29;22.73;;;12.90;;
422;SDS011;198;48.752;9.180;2022-09-01T05:29:55;22.43;;;13.53;;
422;SDS011;198;48.752;9.180;2022-09-01T05:32:24;24.03;;;13.10;;
422;SDS011;198;48.752;9.180;2022-09-01T05:34:50;21.47;;;12.73;;
422;SDS011;198;48.752;9.180;2022-09-01T05:37:17;23.27;;;11.77;;
422;SDS011;198;48.752;9.180;2022-09-01T05:39:44;20.60;;;11.00;;
422;SDS011;198;48.752;9.180;2022-09-01T05:42:10;24.43;;;12.90;;
422;SDS011;198;48.752;9.180;2022-09-01T05:44:35;25.60;;;12.77;;
422;SDS011;198;48.752;9.180;2022-09-01T05:47:07;24.73;;;13.60;;
422;SDS011;198;48.752;9.180;2022-09-01T05:49:36;30.93;;;14.53;;
422;SDS011;198;48.752;9.180;2022-09-01T05:52:03;25.53;;;14.53;;
422;SDS011;198;48.752;9.180;2022-09-01T05:54:29;28.20;;;14.97;;
422;SDS011;198;48.752;9.180;2022-09-01T05:56:56;22.37;;;12.57;;
422;SDS011;198;48.752;9.180;2022-09-01T05:59:22;27.07;;;13.57;;
422;SDS011;198;48.752;9.180;2022-09-01T06:01:49;31.40;;;13.80;;
422;SDS011;198;48.752;9.180;2022-09-01T06:04:14;28.30;;;14.30;;
422;SDS011;198;48.752;9.180;2022-09-01T06:06:44;34.83;;;15.10;;
422;SDS011;198;48.752;9.180;2022-09-01T06:09:13;24.70;;;13.90;;
422;SDS011;198;48.752;9.180;2022-09-01T06:11:42;24.37;;;13.20;;
422;SDS011;198;48.752;9.180;2022-09-01T06:14:10;31.87;;;16.43;;
422;SDS011;198;48.752;9.180;2022-09-01T06:16:37;27.67;;;14.07;;
422;SDS011;198;48.752;9.180;2022-09-01T06:19:03;21.50;;;12.47;;
422;SDS011;198;48.752;9.180;2022-09-01T06:21:29;23.63;;;11.57;;
422;SDS011;198;48.752;9.180;2022-09-01T06:23:56;24.20;;;13.13;;
422;SDS011;198;48.752;9.180;2022-09-01T06:26:26;22.80;;;12.67;;
422;SDS011;198;48.752;9.180;2022-09-01T06:28:55;24.77;;;13.13;;
422;SDS011;198;48.752;9.180;2022-09-01T06:31:26;20.13;;;10.90;;
422;SDS011;198;48.752;9.180;2022-09-01T06:33:54;19.20;;;11.43;;
422;SDS011;198;48.752;9.180;2022-09-01T06:36:20;18.60;;;9.97;;
422;SDS011;198;48.752;9.180;2022-09-01T06:38:47;19.47;;;11.77;;
422;SDS011;198;48.752;9.180;2022-09-01T06:41:15;18.30;;;10.53;;
422;SDS011;198;48.752;9.180;2022-09-01T06:43:41;19.57;;;11.57;;
422;SDS011;198;48.752;9.180;2022-09-01T06:46:07;16.83;;;10.70;;
422;SDS011;198;48.752;9.180;2022-09-01T06:48:34;21.70;;;10.50;;
422;SDS011;198;48.752;9.180;2022-09-01T06:51:04;20.10;;;11.00;;
422;SDS011;198;48.752;9.180;2022-09-01T06:53:29;23.37;;;13.23;;
422;SDS011;198;48.752;9.180;2022-09-01T06:55:56;18.27;;;10.13;;
422;SDS011;198;48.752;9.180;2022-09-01T06:58:21;18.27;;;10.10;;
422;SDS011;198;48.752;9.180;2022-09-01T07:00:47;21.90;;;11.87;;
422;SDS011;198;48.752;9.180;2022-09-01T07:03:13;22.63;;;10.70;;
422;SDS011;198;48.752;9.180;2022-09-01T07:05:43;16.53;;;9.43;;
422;SDS011;198;48.752;9.180;2022-09-01T07:08:12;22.20;;;8.90;;
422;SDS011;198;48.752;9.180;2022-09-01T07:10:45;21.80;;;11.20;;
422;SDS011;198;48.752;9.180;2022-09-01T07:13:14;14.90;;;9.00;;
422;SDS011;198;48.752;9.180;2022-09-01T07:15:47;18.87;;;10.30;;
422;SDS011;198;48.752;9.180;2022-09-01T07:18:17;15.07;;;8.20;;
422;SDS011;198;48.752;9.180;2022-09-01T07:20:45;12.57;;;7.73;;
422;SDS011;198;48.752;9.180;2022-09-01T07:23:13;16.20;;;8.73;;
422;SDS011;198;48.752;9.180;2022-09-01T07:25:41;17.60;;;7.90;;
422;SDS011;198;48.752;9.180;2022-09-01T07:28:09;13.10;;;7.87;;
422;SDS011;198;48.752;9.180;2022-09-01T07:30:41;11.00;;;6.63;;
422;SDS011;198;48.752;9.180;2022-09-01T07:33:12;11.40;;;7.93;;
422;SDS011;198;48.752;9.180;2022-09-01T07:35:40;14.17;;;7.27;;
422;SDS011;198;48.752;9.180;2022-09-01T07:38:07;11.73;;;7.00;;
422;SDS011;198;48.752;9.180;2022-09-01T07:40:37;9.80;;;6.13;;
422;SDS011;198;48.752;9.180;2022-09-01T07:43:06;14.10;;;8.37;;
422;SDS011;198;48.752;9.180;2022-09-01T07:45:38;13.60;;;7.43;;
422;SDS011;198;48.752;9.180;2022-09-01T07:48:10;11.70;;;7.20;;
422;SDS011;198;48.752;9.180;2022-09-01T07:50:39;16.17;;;8.30;;
422;SDS011;198;48.752;9.180;2022-09-01T07:53:08;13.63;;;8.67;;
422;SDS011;198;48.752;9.180;2022-09-01T07:55:38;13.53;;;8.10;;
422;SDS011;198;48.752;9.180;2022-09-01T07:58:05;13.17;;;8.70;;
422;SDS011;198;48.752;9.180;2022-09-01T08:00:30;14.60;;;9.10;;
422;SDS011;198;48.752;9.180;2022-09-01T08:02:57;18.10;;;9.10;;
422;SDS011;198;48.752;9.180;2022-09-01T08:05:24;18.53;;;8.90;;
422;SDS011;198;48.752;9.180;2022-09-01T08:07:51;11.83;;;7.03;;
422;SDS011;198;48.752;9.180;2022-09-01T08:10:17;21.80;;;9.23;;
422;SDS011;198;48.752;9.180;2022-09-01T08:12:43;18.07;;;9.27;;
422;SDS011;198;48.752;9.180;2022-09-01T08:15:08;10.80;;;6.80;;
422;SDS011;198;48.752;9.180;2022-09-01T08:17:36;12.53;;;7.27;;
422;SDS011;198;48.752;9.180;2022-09-01T08:20:02;15.90;;;8.50;;
422;SDS011;198;48.752;9.180;2022-09-01T08:22:30;16.80;;;10.00;;
422;SDS011;198;48.752;9.180;2022-09-01T08:24:56;16.07;;;9.27;;
422;SDS011;198;48.752;9.180;2022-09-01T08:27:22;14.50;;;8.17;;
422;SDS011;198;48.752;9.180;2022-09-01T08:29:47;18.90;;;8.97;;
422;SDS011;198;48.752;9.180;2022-09-01T08:32:12;12.17;;;7.43;;
422;SDS011;198;48.752;9.180;2022-09-01T08:34:38;16.13;;;8.33;;
422;SDS011;198;48.752;9.180;2022-09-01T08:37:04;14.43;;;8.37;;
422;SDS011;198;48.752;9.180;2022-09-01T08:39:30;14.33;;;8.13;;
422;SDS011;198;48.752;9.180;2022-09-01T08:47:05;11.27;;;6.97;;
422;SDS011;198;48.752;9.180;2022-09-01T08:49:33;15.63;;;6.60;;
422;SDS011;198;48.752;9.180;2022-09-01T08:52:07;12.80;;;8.27;;
422;SDS011;198;48.752;9.180;2022-09-01T08:54:59;11.90;;;7.33;;
422;SDS011;198;48.752;9.180;2022-09-01T08:57:34;14.37;;;8.47;;
422;SDS011;198;48.752;9.180;2022-09-01T09:00:03;10.30;;;6.83;;
422;SDS011;198;48.752;9.180;2022-09-01T09:02:50;11.70;;;6.73;;
422;SDS011;198;48.752;9.180;2022-09-01T09:10:42;14.83;;;8.07;;
422;SDS011;198;48.752;9.180;2022-09-01T09:19:18;9.40;;;5.80;;
422;SDS011;198;48.752;9.180;2022-09-01T09:21:52;11.90;;;8.00;;
422;SDS011;198;48.752;9.180;2022-09-01T09:24:27;10.33;;;5.77;;
422;SDS011;198;48.752;9.180;2022-09-01T09:30:01;11.97;;;6.60;;
422;SDS011;198;48.752;9.180;2022-09-01T09:32:43;10.13;;;6.20;;
422;SDS011;198;48.752;9.180;2022-09-01T09:37:42;11.90;;;6.93;;
422;SDS011;198;48.752;9.180;2022-09-01T09:40:16;10.23;;;5.57;;
422;SDS011;198;48.752;9.180;2022-09-01T09:45:29;9.70;;;5.80;;
422;SDS011;198;48.752;9.180;2022-09-01T09:48:03;9.50;;;6.07;;
422;SDS011;198;48.752;9.180;2022-09-01T09:50:32;7.17;;;5.60;;
422;SDS011;198;48.752;9.180;2022-09-01T09:53:24;11.43;;;6.10;;
422;SDS011;198;48.752;9.180;2022-09-01T09:58:20;7.63;;;5.90;;
422;SDS011;198;48.752;9.180;2022-09-01T10:03:38;7.10;;;5.03;;
422;SDS011;198;48.752;9.180;2022-09-01T10:06:13;7.87;;;4.90;;
422;SDS011;198;48.752;9.180;2022-09-01T10:09:32;11.93;;;6.43;;
422;SDS011;198;48.752;9.180;2022-09-01T10:12:01;5.70;;;4.53;;
422;SDS011;198;48.752;9.180;2022-09-01T10:14:29;5.93;;;4.03;;
422;SDS011;198;48.752;9.180;2022-09-01T10:17:45;6.17;;;5.10;;
422;SDS011;198;48.752;9.180;2022-09-01T10:20:08;5.23;;;2.70;;
422;SDS011;198;48.752;9.180;2022-09-01T10:22:38;8.50;;;3.30;;
422;SDS011;198;48.752;9.180;2022-09-01T10:25:05;5.53;;;3.23;;
422;SDS011;198;48.752;9.180;2022-09-01T10:27:39;4.57;;;3.53;;
422;SDS011;198;48.752;9.180;2022-09-01T10:30:11;4.50;;;3.50;;
422;SDS011;198;48.752;9.180;2022-09-01T10:32:41;13.80;;;4.50;;
422;SDS011;198;48.752;9.180;2022-09-01T10:35:17;6.07;;;3.87;;
422;SDS011;198;48.752;9.180;2022-09-01T10:37:47;5.20;;;4.00;;
422;SDS011;198;48.752;9.180;2022-09-01T10:40:15;10.73;;;3.80;;
422;SDS011;198;48.752;9.180;2022-09-01T10:48:45;4.70;;;2.70;;
422;SDS011;198;48.752;9.180;2022-09-01T10:56:10;2.77;;;2.60;;
422;SDS011;198;48.752;9.180;2022-09-01T10:58:42;3.90;;;3.10;;
422;SDS011;198;48.752;9.180;2022-09-01T11:01:13;3.30;;;2.70;;
422;SDS011;198;48.752;9.180;2022-09-01T11:03:51;4.80;;;2.63;;
422;SDS011;198;48.752;9.180;2022-09-01T11:09:07;2.87;;;2.37;;
422;SDS011;198;48.752;9.180;2022-09-01T11:12:00;2.80;;;2.63;;
422;SDS011;198;48.752;9.180;2022-09-01T11:14:50;5.17;;;3.47;;
422;SDS011;198;48.752;9.180;2022-09-01T11:25:12;4.00;;;3.03;;
422;SDS011;198;48.752;9.180;2022-09-01T11:27:58;3.67;;;2.97;;
422;SDS011;198;48.752;9.180;2022-09-01T11:32:56;4.63;;;3.40;;
422;SDS011;198;48.752;9.180;2022-09-01T11:35:27;4.80;;;3.10;;
422;SDS011;198;48.752;9.180;2022-09-01T11:38:00;6.20;;;4.20;;
422;SDS011;198;48.752;9.180;2022-09-01T11:40:29;4.90;;;3.50;;
422;SDS011;198;48.752;9.180;2022-09-01T11:42:56;3.43;;;3.00;;
422;SDS011;198;48.752;9.180;2022-09-01T11:45:26;4.10;;;3.20;;
422;SDS011;198;48.752;9.180;2022-09-01T11:47:57;4.43;;;3.10;;
422;SDS011;198;48.752;9.180;2022-09-01T11:50:29;3.67;;;2.73;;
422;SDS011;198;48.752;9.180;2022-09-01T11:53:07;4.50;;;2.87;;
422;SDS011;198;48.752;9.180;2022-09-01T11:55:37;5.83;;;2.70;;
422;SDS011;198;48.752;9.180;2022-09-01T11:58:14;3.70;;;2.70;;
422;SDS011;198;48.752;9.180;2022-09-01T12:00:53;5.13;;;2.60;;
422;SDS011;198;48.752;9.180;2022-09-01T12:03:22;3.30;;;2.43;;
422;SDS011;198;48.752;9.180;2022-09-01T12:05:53;2.73;;;2.30;;
422;SDS011;198;48.752;9.180;2022-09-01T12:08:26;2.00;;;1.90;;
422;SDS011;198;48.752;9.180;2022-09-01T12:11:02;2.47;;;2.13;;
422;SDS011;198;48.752;9.180;2022-09-01T12:13:29;1.80;;;1.70;;
422;SDS011;198;48.752;9.180;2022-09-01T12:15:56;2.20;;;2.00;;
422;SDS011;198;48.752;9.180;2022-09-01T12:18:25;2.78;;;1.95;;
422;SDS011;198;48.752;9.180;2022-09-01T12:20:53;8.38;;;2.63;;
422;SDS011;198;48.752;9.180;2022-09-01T12:23:23;1.60;;;1.50;;
422;SDS011;198;48.752;9.180;2022-09-01T12:25:53;2.05;;;1.80;;
422;SDS011;198;48.752;9.180;2022-09-01T12:28:22;2.35;;;2.08;;
422;SDS011;198;48.752;9.180;2022-09-01T12:30:50;2.05;;;1.92;;
422;SDS011;198;48.752;9.180;2022-09-01T12:33:17;2.00;;;1.92;;
422;SDS011;198;48.752;9.180;2022-09-01T12:35:44;4.60;;;2.83;;
422;SDS011;198;48.752;9.180;2022-09-01T12:40:45;2.80;;;2.60;;
422;SDS011;198;48.752;9.180;2022-09-01T12:43:35;2.60;;;2.37;;
422;SDS011;198;48.752;9.180;2022-09-01T12:46:00;2.20;;;2.00;;
422;SDS011;198;48.752;9.180;2022-09-01T12:48:32;3.10;;;2.80;;
422;SDS011;198;48.752;9.180;2022-09-01T12:51:00;4.53;;;3.07;;
422;SDS011;198;48.752;9.180;2022-09-01T12:53:49;3.57;;;2.77;;
422;SDS011;198;48.752;9.180;2022-09-01T12:59:13;4.27;;;2.70;;
422;SDS011;198;48.752;9.180;2022-09-01T13:01:44;4.57;;;2.60;;
422;SDS011;198;48.752;9.180;2022-09-01T13:04:11;4.20;;;2.90;;
422;SDS011;198;48.752;9.180;2022-09-01T13:06:55;3.63;;;2.57;;
422;SDS011;198;48.752;9.180;2022-09-01T13:09:25;4.23;;;2.60;;
422;SDS011;198;48.752;9.180;2022-09-01T13:11:50;4.30;;;3.13;;
422;SDS011;198;48.752;9.180;2022-09-01T13:14:16;3.53;;;2.63;;
422;SDS011;198;48.752;9.180;2022-09-01T13:16:42;8.30;;;2.50;;
422;SDS011;198;48.752;9.180;2022-09-01T13:19:08;3.00;;;2.40;;
422;SDS011;198;48.752;9.180;2022-09-01T13:21:34;2.60;;;2.43;;
422;SDS011;198;48.752;9.180;2022-09-01T13:24:01;3.17;;;2.67;;
422;SDS011;198;48.752;9.180;2022-09-01T13:26:29;2.63;;;2.43;;
422;SDS011;198;48.752;9.180;2022-09-01T13:28:55;4.13;;;2.80;;
422;SDS011;198;48.752;9.180;2022-09-01T13:31:21;3.77;;;2.53;;
422;SDS011;198;48.752;9.180;2022-09-01T13:33:47;2.47;;;2.23;;
422;SDS011;198;48.752;9.180;2022-09-01T13:36:13;3.53;;;2.60;;
422;SDS011;198;48.752;9.180;2022-09-01T13:38:39;3.00;;;2.60;;
422;SDS011;198;48.752;9.180;2022-09-01T13:41:04;2.57;;;2.43;;
422;SDS011;198;48.752;9.180;2022-09-01T13:43:30;3.03;;;2.83;;
422;SDS011;198;48.752;9.180;2022-09-01T13:45:58;4.00;;;2.10;;
422;SDS011;198;48.752;9.180;2022-09-01T13:48:23;2.57;;;2.43;;
422;SDS011;198;48.752;9.180;2022-09-01T13:50:50;3.20;;;2.60;;
422;SDS011;198;48.752;9.180;2022-09-01T13:53:19;3.20;;;2.70;;
422;SDS011;198;48.752;9.180;2022-09-01T13:55:45;3.93;;;2.80;;
422;SDS011;198;48.752;9.180;2022-09-01T13:58:11;3.40;;;3.27;;
422;SDS011;198;48.752;9.180;2022-09-01T14:00:39;8.23;;;3.87;;
422;SDS011;198;48.752;9.180;2022-09-01T14:03:08;3.00;;;2.80;;
422;SDS011;198;48.752;9.180;2022-09-01T14:05:37;6.03;;;3.30;;
422;SDS011;198;48.752;9.180;2022-09-01T14:08:05;3.63;;;3.10;;
422;SDS011;198;48.752;9.180;2022-09-01T14:10:32;5.50;;;3.60;;
422;SDS011;198;48.752;9.180;2022-09-01T14:13:03;3.53;;;3.17;;
422;SDS011;198;48.752;9.180;2022-09-01T14:15:28;5.33;;;3.70;;
422;SDS011;198;48.752;9.180;2022-09-01T14:17:54;3.53;;;2.80;;
422;SDS011;198;48.752;9.180;2022-09-01T14:20:22;3.87;;;3.40;;
422;SDS011;198;48.752;9.180;2022-09-01T14:22:54;4.33;;;3.80;;
422;SDS011;198;48.752;9.180;2022-09-01T14:25:20;10.00;;;4.67;;
422;SDS011;198;48.752;9.180;2022-09-01T14:27:46;4.97;;;4.03;;
422;SDS011;198;48.752;9.180;2022-09-01T14:30:15;3.50;;;3.30;;
422;SDS011;198;48.752;9.180;2022-09-01T14:32:43;6.63;;;4.40;;
422;SDS011;198;48.752;9.180;2022-09-01T14:35:08;4.57;;;3.40;;
422;SDS011;198;48.752;9.180;2022-09-01T14:37:38;8.30;;;3.20;;
422;SDS011;198;48.752;9.180;2022-09-01T14:40:05;4.07;;;3.17;;
422;SDS011;198;48.752;9.180;2022-09-01T14:42:32;5.00;;;2.93;;
422;SDS011;198;48.752;9.180;2022-09-01T14:44:58;2.60;;;2.50;;
422;SDS011;198;48.752;9.180;2022-09-01T14:47:25;4.10;;;3.00;;
422;SDS011;198;48.752;9.180;2022-09-01T14:49:51;3.97;;;2.97;;
422;SDS011;198;48.752;9.180;2022-09-01T14:52:17;2.27;;;2.13;;
422;SDS011;198;48.752;9.180;2022-09-01T14:54:43;3.23;;;2.40;;
422;SDS011;198;48.752;9.180;2022-09-01T14:57:09;3.23;;;2.70;;
422;SDS011;198;48.752;9.180;2022-09-01T14:59:35;3.33;;;2.23;;
422;SDS011;198;48.752;9.180;2022-09-01T15:02:01;2.27;;;2.13;;
422;SDS011;198;48.752;9.180;2022-09-01T15:04:26;5.27;;;2.10;;
422;SDS011;198;48.752;9.180;2022-09-01T15:06:52;2.10;;;1.93;;
422;SDS011;198;48.752;9.180;2022-09-01T15:09:18;2.00;;;1.80;;
422;SDS011;198;48.752;9.180;2022-09-01T15:11:44;1.80;;;1.70;;
422;SDS011;198;48.752;9.180;2022-09-01T15:14:10;3.60;;;1.90;;
422;SDS011;198;48.752;9.180;2022-09-01T15:16:36;6.20;;;2.00;;
422;SDS011;198;48.752;9.180;2022-09-01T15:19:09;3.97;;;2.20;;
422;SDS011;198;48.752;9.180;2022-09-01T15:21:37;2.30;;;2.10;;
422;SDS011;198;48.752;9.180;2022-09-01T15:24:04;2.40;;;2.20;;
422;SDS011;198;48.752;9.180;2022-09-01T15:26:31;2.83;;;2.67;;
422;SDS011;198;48.752;9.180;2022-09-01T15:28:56;3.97;;;2.00;;
422;SDS011;198;48.752;9.180;2022-09-01T15:31:22;2.37;;;2.17;;
422;SDS011;198;48.752;9.180;2022-09-01T15:33:53;1.93;;;1.70;;
422;SDS011;198;48.752;9.180;2022-09-01T15:36:20;2.27;;;2.07;;
422;SDS011;198;48.752;9.180;2022-09-01T15:38:48;1.60;;;1.50;;
422;SDS011;198;48.752;9.180;2022-09-01T15:41:35;5.40;;;2.40;;
422;SDS011;198;48.752;9.180;2022-09-01T15:44:00;2.63;;;2.50;;
422;SDS011;198;48.752;9.180;2022-09-01T15:46:31;3.20;;;2.00;;
422;SDS011;198;48.752;9.180;2022-09-01T15:49:01;3.40;;;1.87;;
422;SDS011;198;48.752;9.180;2022-09-01T15:51:32;2.13;;;1.97;;
422;SDS011;198;48.752;9.180;2022-09-01T15:54:04;2.77;;;2.50;;
422;SDS011;198;48.752;9.180;2022-09-01T15:56:32;2.20;;;2.00;;
422;SDS011;198;48.752;9.180;2022-09-01T15:58:58;2.37;;;2.20;;
422;SDS011;198;48.752;9.180;2022-09-01T16:01:25;2.70;;;2.47;;
422;SDS011;198;48.752;9.180;2022-09-01T16:03:51;3.47;;;2.07;;
422;SDS011;198;48.752;9.180;2022-09-01T16:06:18;2.50;;;2.20;;
422;SDS011;198;48.752;9.180;2022-09-01T16:08:44;3.90;;;2.40;;
422;SDS011;198;48.752;9.180;2022-09-01T16:11:09;2.90;;;2.57;;
422;SDS011;198;48.752;9.180;2022-09-01T16:13:38;3.10;;;2.10;;
422;SDS011;198;48.752;9.180;2022-09-01T16:16:07;3.00;;;2.80;;
422;SDS011;198;48.752;9.180;2022-09-01T16:18:45;3.63;;;2.57;;
422;SDS011;198;48.752;9.180;2022-09-01T16:21:30;3.33;;;2.10;;
422;SDS011;198;48.752;9.180;2022-09-01T16:24:17;2.70;;;2.50;;
422;SDS011;198;48.752;9.180;2022-09-01T16:26:43;2.77;;;2.10;;
422;SDS011;198;48.752;9.180;2022-09-01T16:29:14;3.00;;;2.57;;
422;SDS011;198;48.752;9.180;2022-09-01T16:31:45;5.00;;;2.30;;
422;SDS011;198;48.752;9.180;2022-09-01T16:34:15;3.40;;;2.70;;
422;SDS011;198;48.752;9.180;2022-09-01T16:42:06;3.37;;;2.70;;
422;SDS011;198;48.752;9.180;2022-09-01T16:50:14;5.30;;;2.40;;
422;SDS011;198;48.752;9.180;2022-09-01T16:53:07;2.60;;;2.40;;
422;SDS011;198;48.752;9.180;2022-09-01T16:58:41;6.00;;;3.13;;
422;SDS011;198;48.752;9.180;2022-09-01T17:03:48;3.30;;;3.10;;
422;SDS011;198;48.752;9.180;2022-09-01T17:06:30;5.70;;;3.70;;